sensor_id;sensor_type;location;lat;lon;timestamp;temperature;humidity
752;DHT22;360;48.764;9.164;2023-05-29T14:16:29;27.30;1.00
752;DHT22;360;48.764;9.164;2023-05-29T14:26:17;30.60;1.00
752;DHT22;360;48.764;9.164;2023-05-29T14:28:44;31.30;1.00
752;DHT22;360;48.764;9.164;2023-05-29T14:31:11;30.90;1.00
752;DHT22;360;48.764;9.164;2023-05-29T14:33:39;30.80;1.00
752;DHT22;360;48.764;9.164;2023-05-29T14:36:06;31.50;1.00
752;DHT22;360;48.764;9.164;2023-05-29T14:50:51;31.10;1.00
752;DHT22;360;48.764;9.164;2023-05-29T14:53:17;32.30;1.00
752;DHT22;360;48.764;9.164;2023-05-29T14:55:46;31.90;1.00
752;DHT22;360;48.764;9.164;2023-05-29T14:58:13;32.30;1.00
752;DHT22;360;48.764;9.164;2023-05-29T15:08:02;32.50;1.00
752;DHT22;360;48.764;9.164;2023-05-29T15:10:29;34.00;1.00
752;DHT22;360;48.764;9.164;2023-05-29T15:12:56;33.40;1.00
752;DHT22;360;48.764;9.164;2023-05-29T15:15:23;33.30;1.00
752;DHT22;360;48.764;9.164;2023-05-29T15:17:51;33.40;1.00
752;DHT22;360;48.764;9.164;2023-05-29T15:20:21;33.50;1.00
752;DHT22;360;48.764;9.164;2023-05-29T15:22:48;33.90;1.00
752;DHT22;360;48.764;9.164;2023-05-29T15:30:12;34.20;1.00
752;DHT22;360;48.764;9.164;2023-05-29T15:32:39;34.40;1.00
752;DHT22;360;48.764;9.164;2023-05-29T15:35:07;34.70;1.00
752;DHT22;360;48.764;9.164;2023-05-29T15:37:34;34.80;1.00
752;DHT22;360;48.764;9.164;2023-05-29T15:40:01;35.10;1.00
752;DHT22;360;48.764;9.164;2023-05-29T15:42:30;34.60;1.00
752;DHT22;360;48.764;9.164;2023-05-29T15:44:57;34.40;1.00
752;DHT22;360;48.764;9.164;2023-05-29T15:47:24;34.80;1.00
752;DHT22;360;48.764;9.164;2023-05-29T15:49:51;34.80;1.00
752;DHT22;360;48.764;9.164;2023-05-29T15:52:18;35.50;1.00
752;DHT22;360;48.764;9.164;2023-05-29T15:54:45;35.30;1.00
752;DHT22;360;48.764;9.164;2023-05-29T16:02:08;35.10;1.00
752;DHT22;360;48.764;9.164;2023-05-29T16:41:26;36.80;1.00
752;DHT22;360;48.764;9.164;2023-05-29T16:43:53;35.50;1.00
752;DHT22;360;48.764;9.164;2023-05-29T16:46:19;35.40;1.00
752;DHT22;360;48.764;9.164;2023-05-29T16:48:47;36.10;1.00
752;DHT22;360;48.764;9.164;2023-05-29T16:51:15;35.50;1.00
752;DHT22;360;48.764;9.164;2023-05-29T16:53:42;35.70;1.00
752;DHT22;360;48.764;9.164;2023-05-29T16:56:09;35.20;1.00
752;DHT22;360;48.764;9.164;2023-05-29T16:58:36;35.50;1.00
752;DHT22;360;48.764;9.164;2023-05-29T17:01:03;35.30;1.00
752;DHT22;360;48.764;9.164;2023-05-29T17:03:30;35.10;1.00
752;DHT22;360;48.764;9.164;2023-05-29T17:05:57;35.20;1.00
752;DHT22;360;48.764;9.164;2023-05-29T17:08:26;35.30;1.00
752;DHT22;360;48.764;9.164;2023-05-29T17:10:53;35.40;1.00
752;DHT22;360;48.764;9.164;2023-05-29T17:13:20;34.90;1.00
752;DHT22;360;48.764;9.164;2023-05-29T17:15:46;34.20;1.00
752;DHT22;360;48.764;9.164;2023-05-29T17:18:13;34.60;1.00
752;DHT22;360;48.764;9.164;2023-05-29T17:20:40;34.90;1.00
752;DHT22;360;48.764;9.164;2023-05-29T17:23:07;34.90;1.00
752;DHT22;360;48.764;9.164;2023-05-29T17:25:36;34.40;1.00
752;DHT22;360;48.764;9.164;2023-05-29T17:28:03;34.40;1.00
752;DHT22;360;48.764;9.164;2023-05-29T17:30:31;34.40;1.00
752;DHT22;360;48.764;9.164;2023-05-29T17:32:58;33.60;1.00
752;DHT22;360;48.764;9.164;2023-05-29T17:35:28;33.00;1.00
752;DHT22;360;48.764;9.164;2023-05-29T17:37:55;33.00;1.00
752;DHT22;360;48.764;9.164;2023-05-29T17:40:22;32.80;1.00
752;DHT22;360;48.764;9.164;2023-05-29T17:42:50;32.00;1.00
752;DHT22;360;48.764;9.164;2023-05-29T17:47:44;30.20;1.00
752;DHT22;360;48.764;9.164;2023-05-29T17:50:11;29.00;1.00
752;DHT22;360;48.764;9.164;2023-05-29T20:47:16;28.50;1.00
752;DHT22;360;48.764;9.164;2023-05-29T20:49:43;21.70;1.00
752;DHT22;360;48.764;9.164;2023-05-29T20:52:11;21.40;1.00
752;DHT22;360;48.764;9.164;2023-05-29T20:54:38;21.30;1.00
752;DHT22;360;48.764;9.164;2023-05-29T20:57:06;21.30;1.00
752;DHT22;360;48.764;9.164;2023-05-29T20:59:33;21.20;1.00
752;DHT22;360;48.764;9.164;2023-05-29T21:01:59;21.20;1.00
752;DHT22;360;48.764;9.164;2023-05-29T21:04:26;21.20;1.00
752;DHT22;360;48.764;9.164;2023-05-29T21:06:53;21.20;1.00
752;DHT22;360;48.764;9.164;2023-05-29T21:09:21;21.20;1.00
752;DHT22;360;48.764;9.164;2023-05-29T21:11:48;21.10;1.00
752;DHT22;360;48.764;9.164;2023-05-29T21:14:16;21.10;1.00
752;DHT22;360;48.764;9.164;2023-05-29T21:16:43;21.10;1.00
752;DHT22;360;48.764;9.164;2023-05-29T21:19:10;21.00;1.00
752;DHT22;360;48.764;9.164;2023-05-29T21:21:36;21.00;1.00
752;DHT22;360;48.764;9.164;2023-05-29T21:24:05;20.90;1.00
752;DHT22;360;48.764;9.164;2023-05-29T21:26:37;20.90;1.00
752;DHT22;360;48.764;9.164;2023-05-29T21:29:04;20.90;1.00
752;DHT22;360;48.764;9.164;2023-05-29T21:31:31;20.90;1.00
752;DHT22;360;48.764;9.164;2023-05-29T21:33:58;20.80;1.00
752;DHT22;360;48.764;9.164;2023-05-29T21:36:25;20.80;1.00
752;DHT22;360;48.764;9.164;2023-05-29T21:38:52;20.50;1.00
752;DHT22;360;48.764;9.164;2023-05-29T21:41:19;20.60;1.00
752;DHT22;360;48.764;9.164;2023-05-29T21:43:47;20.40;1.00
752;DHT22;360;48.764;9.164;2023-05-29T21:46:13;20.10;1.00
752;DHT22;360;48.764;9.164;2023-05-29T21:48:40;19.80;1.00
752;DHT22;360;48.764;9.164;2023-05-29T21:51:07;19.60;1.00
752;DHT22;360;48.764;9.164;2023-05-29T21:53:34;19.60;1.00
752;DHT22;360;48.764;9.164;2023-05-29T21:56:01;19.50;1.00
752;DHT22;360;48.764;9.164;2023-05-29T21:58:28;19.10;1.00
752;DHT22;360;48.764;9.164;2023-05-29T22:00:57;18.90;1.00
752;DHT22;360;48.764;9.164;2023-05-29T22:03:25;18.90;1.00
752;DHT22;360;48.764;9.164;2023-05-29T22:05:51;19.00;1.00
752;DHT22;360;48.764;9.164;2023-05-29T22:08:18;18.70;1.00
752;DHT22;360;48.764;9.164;2023-05-29T22:10:45;18.70;1.00
752;DHT22;360;48.764;9.164;2023-05-29T22:13:12;18.70;1.00
752;DHT22;360;48.764;9.164;2023-05-29T22:15:39;18.50;1.00
752;DHT22;360;48.764;9.164;2023-05-29T22:18:08;18.30;1.00
752;DHT22;360;48.764;9.164;2023-05-29T22:20:35;18.50;1.00
752;DHT22;360;48.764;9.164;2023-05-29T22:23:02;18.40;1.00
752;DHT22;360;48.764;9.164;2023-05-29T22:25:29;18.40;1.00
752;DHT22;360;48.764;9.164;2023-05-29T22:27:56;18.20;1.00
752;DHT22;360;48.764;9.164;2023-05-29T22:30:23;18.20;1.00
752;DHT22;360;48.764;9.164;2023-05-29T22:32:50;18.30;1.00
752;DHT22;360;48.764;9.164;2023-05-29T22:35:19;18.30;1.00
752;DHT22;360;48.764;9.164;2023-05-29T22:37:46;18.10;1.00
752;DHT22;360;48.764;9.164;2023-05-29T22:40:12;18.10;1.00
752;DHT22;360;48.764;9.164;2023-05-29T22:42:40;18.10;1.00
752;DHT22;360;48.764;9.164;2023-05-29T22:45:08;18.10;1.00
752;DHT22;360;48.764;9.164;2023-05-29T22:47:36;17.90;1.00
752;DHT22;360;48.764;9.164;2023-05-29T22:50:04;17.50;1.00
752;DHT22;360;48.764;9.164;2023-05-29T22:52:33;17.80;1.00
752;DHT22;360;48.764;9.164;2023-05-29T22:55:00;17.50;1.00
752;DHT22;360;48.764;9.164;2023-05-29T22:57:28;17.40;1.00
752;DHT22;360;48.764;9.164;2023-05-29T22:59:55;17.20;1.00
752;DHT22;360;48.764;9.164;2023-05-29T23:02:22;17.30;1.00
752;DHT22;360;48.764;9.164;2023-05-29T23:04:49;17.40;1.00
752;DHT22;360;48.764;9.164;2023-05-29T23:07:16;17.30;1.00
752;DHT22;360;48.764;9.164;2023-05-29T23:09:44;17.40;1.00
752;DHT22;360;48.764;9.164;2023-05-29T23:12:11;17.10;1.00
752;DHT22;360;48.764;9.164;2023-05-29T23:14:38;17.10;2.20
752;DHT22;360;48.764;9.164;2023-05-29T23:17:05;17.10;8.90
752;DHT22;360;48.764;9.164;2023-05-29T23:19:32;17.30;1.60
752;DHT22;360;48.764;9.164;2023-05-29T23:22:00;17.10;2.20
752;DHT22;360;48.764;9.164;2023-05-29T23:24:27;16.80;25.10
752;DHT22;360;48.764;9.164;2023-05-29T23:26:55;16.80;23.20
752;DHT22;360;48.764;9.164;2023-05-29T23:29:23;16.60;43.20
752;DHT22;360;48.764;9.164;2023-05-29T23:31:50;17.20;23.50
752;DHT22;360;48.764;9.164;2023-05-29T23:34:17;16.90;25.40
752;DHT22;360;48.764;9.164;2023-05-29T23:36:45;17.00;28.10
752;DHT22;360;48.764;9.164;2023-05-29T23:39:12;17.20;22.90
752;DHT22;360;48.764;9.164;2023-05-29T23:41:40;16.80;32.00
752;DHT22;360;48.764;9.164;2023-05-29T23:44:08;16.60;63.60
752;DHT22;360;48.764;9.164;2023-05-29T23:46:36;16.80;53.90
752;DHT22;360;48.764;9.164;2023-05-29T23:49:03;16.80;55.20
752;DHT22;360;48.764;9.164;2023-05-29T23:51:31;16.80;69.90
752;DHT22;360;48.764;9.164;2023-05-29T23:53:58;16.70;73.30
752;DHT22;360;48.764;9.164;2023-05-29T23:56:25;16.30;93.40
752;DHT22;360;48.764;9.164;2023-05-29T23:58:52;16.10;99.90
